sensor_id;sensor_type;location;lat;lon;timestamp;temperature;humidity
17831;DHT22;9040;51.332;12.406;2022-09-13T00:01:53;16.30;99.90
17831;DHT22;9040;51.332;12.406;2022-09-13T00:04:20;16.40;99.90
17831;DHT22;9040;51.332;12.406;2022-09-13T00:06:47;16.40;99.90
17831;DHT22;9040;51.332;12.406;2022-09-13T00:09:13;16.40;99.90
17831;DHT22;9040;51.332;12.406;2022-09-13T00:11:40;16.40;99.90
17831;DHT22;9040;51.332;12.406;2022-09-13T00:14:07;16.40;99.90
17831;DHT22;9040;51.332;12.406;2022-09-13T00:16:34;16.40;99.90
17831;DHT22;9040;51.332;12.406;2022-09-13T00:19:03;16.40;99.90
17831;DHT22;9040;51.332;12.406;2022-09-13T00:21:30;16.40;99.90
17831;DHT22;9040;51.332;12.406;2022-09-13T00:23:57;16.40;99.90
17831;DHT22;9040;51.332;12.406;2022-09-13T00:26:25;16.40;99.90
17831;DHT22;9040;51.332;12.406;2022-09-13T00:28:54;16.40;99.90
17831;DHT22;9040;51.332;12.406;2022-09-13T00:31:22;16.40;99.90
17831;DHT22;9040;51.332;12.406;2022-09-13T00:33:51;16.40;99.90
17831;DHT22;9040;51.332;12.406;2022-09-13T00:36:19;16.30;99.90
17831;DHT22;9040;51.332;12.406;2022-09-13T00:38:46;16.30;99.90
17831;DHT22;9040;51.332;12.406;2022-09-13T00:41:15;16.40;99.90
17831;DHT22;9040;51.332;12.406;2022-09-13T00:43:45;16.40;99.90
17831;DHT22;9040;51.332;12.406;2022-09-13T00:46:19;16.30;99.90
17831;DHT22;9040;51.332;12.406;2022-09-13T00:48:47;16.30;99.90
17831;DHT22;9040;51.332;12.406;2022-09-13T00:51:14;16.20;99.90
17831;DHT22;9040;51.332;12.406;2022-09-13T00:53:45;16.30;99.90
17831;DHT22;9040;51.332;12.406;2022-09-13T00:56:16;16.30;99.90
17831;DHT22;9040;51.332;12.406;2022-09-13T00:58:48;16.40;99.90
17831;DHT22;9040;51.332;12.406;2022-09-13T01:01:18;16.30;99.90
17831;DHT22;9040;51.332;12.406;2022-09-13T01:03:46;16.30;99.90
17831;DHT22;9040;51.332;12.406;2022-09-13T01:06:16;16.20;99.90
17831;DHT22;9040;51.332;12.406;2022-09-13T01:08:48;16.20;99.90
17831;DHT22;9040;51.332;12.406;2022-09-13T01:11:21;16.20;99.90
17831;DHT22;9040;51.332;12.406;2022-09-13T01:13:52;16.20;99.90
17831;DHT22;9040;51.332;12.406;2022-09-13T01:16:19;16.10;99.90
17831;DHT22;9040;51.332;12.406;2022-09-13T01:18:46;16.10;99.90
17831;DHT22;9040;51.332;12.406;2022-09-13T01:27:40;16.00;99.90
17831;DHT22;9040;51.332;12.406;2022-09-13T01:30:11;16.00;99.90
17831;DHT22;9040;51.332;12.406;2022-09-13T01:35:43;16.00;99.90
17831;DHT22;9040;51.332;12.406;2022-09-13T01:38:24;16.00;99.90
17831;DHT22;9040;51.332;12.406;2022-09-13T01:41:04;15.90;99.90
17831;DHT22;9040;51.332;12.406;2022-09-13T01:43:41;15.90;99.90
17831;DHT22;9040;51.332;12.406;2022-09-13T01:46:17;15.90;99.90
17831;DHT22;9040;51.332;12.406;2022-09-13T01:48:57;15.80;99.90
17831;DHT22;9040;51.332;12.406;2022-09-13T01:51:29;15.80;99.90
17831;DHT22;9040;51.332;12.406;2022-09-13T01:54:09;15.80;99.90
17831;DHT22;9040;51.332;12.406;2022-09-13T01:56:41;15.70;99.90
17831;DHT22;9040;51.332;12.406;2022-09-13T01:59:14;15.80;99.90
17831;DHT22;9040;51.332;12.406;2022-09-13T02:01:46;15.80;99.90
17831;DHT22;9040;51.332;12.406;2022-09-13T02:04:19;15.90;99.90
17831;DHT22;9040;51.332;12.406;2022-09-13T02:06:51;15.90;99.90
17831;DHT22;9040;51.332;12.406;2022-09-13T02:09:25;15.90;99.90
17831;DHT22;9040;51.332;12.406;2022-09-13T02:11:56;15.90;99.90
17831;DHT22;9040;51.332;12.406;2022-09-13T02:14:31;15.80;99.90
17831;DHT22;9040;51.332;12.406;2022-09-13T02:17:04;15.80;99.90
17831;DHT22;9040;51.332;12.406;2022-09-13T02:19:35;15.80;99.90
17831;DHT22;9040;51.332;12.406;2022-09-13T02:22:06;15.90;99.90
17831;DHT22;9040;51.332;12.406;2022-09-13T02:24:36;15.90;99.90
17831;DHT22;9040;51.332;12.406;2022-09-13T02:27:07;15.80;99.90
17831;DHT22;9040;51.332;12.406;2022-09-13T02:29:38;15.80;99.90
17831;DHT22;9040;51.332;12.406;2022-09-13T02:32:09;15.80;99.90
17831;DHT22;9040;51.332;12.406;2022-09-13T02:34:40;15.80;99.90
17831;DHT22;9040;51.332;12.406;2022-09-13T02:37:09;15.70;99.90
17831;DHT22;9040;51.332;12.406;2022-09-13T02:39:42;15.70;99.90
17831;DHT22;9040;51.332;12.406;2022-09-13T02:42:16;15.70;99.90
17831;DHT22;9040;51.332;12.406;2022-09-13T02:44:45;15.70;99.90
17831;DHT22;9040;51.332;12.406;2022-09-13T02:47:32;15.70;99.90
17831;DHT22;9040;51.332;12.406;2022-09-13T02:50:09;15.70;99.90
17831;DHT22;9040;51.332;12.406;2022-09-13T02:52:47;15.70;99.90
17831;DHT22;9040;51.332;12.406;2022-09-13T02:55:19;15.70;99.90
17831;DHT22;9040;51.332;12.406;2022-09-13T02:57:58;15.70;99.90
17831;DHT22;9040;51.332;12.406;2022-09-13T03:00:26;15.70;99.90
17831;DHT22;9040;51.332;12.406;2022-09-13T03:02:57;15.60;99.90
17831;DHT22;9040;51.332;12.406;2022-09-13T03:05:25;15.60;99.90
17831;DHT22;9040;51.332;12.406;2022-09-13T03:07:52;15.60;99.90
17831;DHT22;9040;51.332;12.406;2022-09-13T03:10:21;15.50;99.90
17831;DHT22;9040;51.332;12.406;2022-09-13T03:13:06;15.50;99.90
17831;DHT22;9040;51.332;12.406;2022-09-13T03:15:49;15.50;99.90
17831;DHT22;9040;51.332;12.406;2022-09-13T03:18:32;15.50;99.90
17831;DHT22;9040;51.332;12.406;2022-09-13T03:21:06;15.50;99.90
17831;DHT22;9040;51.332;12.406;2022-09-13T03:23:45;15.40;99.90
17831;DHT22;9040;51.332;12.406;2022-09-13T03:29:18;15.40;99.90
17831;DHT22;9040;51.332;12.406;2022-09-13T03:31:52;15.40;99.90
17831;DHT22;9040;51.332;12.406;2022-09-13T03:34:30;15.50;99.90
17831;DHT22;9040;51.332;12.406;2022-09-13T03:37:04;15.50;99.90
17831;DHT22;9040;51.332;12.406;2022-09-13T03:39:38;15.50;99.90
17831;DHT22;9040;51.332;12.406;2022-09-13T03:42:11;15.50;99.90
17831;DHT22;9040;51.332;12.406;2022-09-13T03:44:43;15.50;99.90
17831;DHT22;9040;51.332;12.406;2022-09-13T03:47:12;15.50;99.90
17831;DHT22;9040;51.332;12.406;2022-09-13T03:49:40;15.50;99.90
17831;DHT22;9040;51.332;12.406;2022-09-13T03:52:09;15.50;99.90
17831;DHT22;9040;51.332;12.406;2022-09-13T03:54:37;15.50;99.90
17831;DHT22;9040;51.332;12.406;2022-09-13T03:57:12;15.50;99.90
17831;DHT22;9040;51.332;12.406;2022-09-13T03:59:43;15.60;99.90
17831;DHT22;9040;51.332;12.406;2022-09-13T04:02:11;15.60;99.90
17831;DHT22;9040;51.332;12.406;2022-09-13T04:04:39;15.50;99.90
17831;DHT22;9040;51.332;12.406;2022-09-13T04:07:08;15.50;99.90
17831;DHT22;9040;51.332;12.406;2022-09-13T04:09:36;15.50;99.90
17831;DHT22;9040;51.332;12.406;2022-09-13T04:12:03;15.50;99.90
17831;DHT22;9040;51.332;12.406;2022-09-13T04:14:30;15.50;99.90
17831;DHT22;9040;51.332;12.406;2022-09-13T04:16:58;15.50;99.90
17831;DHT22;9040;51.332;12.406;2022-09-13T04:19:24;15.50;99.90
17831;DHT22;9040;51.332;12.406;2022-09-13T04:21:52;15.50;99.90
17831;DHT22;9040;51.332;12.406;2022-09-13T04:24:24;15.50;99.90
17831;DHT22;9040;51.332;12.406;2022-09-13T04:26:52;15.50;99.90
17831;DHT22;9040;51.332;12.406;2022-09-13T04:29:20;15.50;99.90
17831;DHT22;9040;51.332;12.406;2022-09-13T04:31:48;15.50;99.90
17831;DHT22;9040;51.332;12.406;2022-09-13T04:34:16;15.50;99.90
17831;DHT22;9040;51.332;12.406;2022-09-13T04:36:43;15.40;99.90
17831;DHT22;9040;51.332;12.406;2022-09-13T04:39:11;15.40;99.90
17831;DHT22;9040;51.332;12.406;2022-09-13T04:41:40;15.40;99.90
17831;DHT22;9040;51.332;12.406;2022-09-13T04:44:10;15.40;99.90
17831;DHT22;9040;51.332;12.406;2022-09-13T04:46:37;15.50;99.90
17831;DHT22;9040;51.332;12.406;2022-09-13T04:49:04;15.50;99.90
17831;DHT22;9040;51.332;12.406;2022-09-13T04:51:31;15.50;99.90
17831;DHT22;9040;51.332;12.406;2022-09-13T04:53:58;15.50;99.90
17831;DHT22;9040;51.332;12.406;2022-09-13T04:56:25;15.60;99.90
17831;DHT22;9040;51.332;12.406;2022-09-13T04:58:54;15.60;99.90
17831;DHT22;9040;51.332;12.406;2022-09-13T05:01:22;15.60;99.90
17831;DHT22;9040;51.332;12.406;2022-09-13T05:03:50;15.70;99.90
17831;DHT22;9040;51.332;12.406;2022-09-13T05:06:18;15.70;99.90
17831;DHT22;9040;51.332;12.406;2022-09-13T05:08:49;15.70;99.90
17831;DHT22;9040;51.332;12.406;2022-09-13T05:11:17;15.80;99.90
17831;DHT22;9040;51.332;12.406;2022-09-13T05:13:48;15.80;99.90
17831;DHT22;9040;51.332;12.406;2022-09-13T05:16:19;15.70;99.90
17831;DHT22;9040;51.332;12.406;2022-09-13T05:18:45;15.70;99.90
17831;DHT22;9040;51.332;12.406;2022-09-13T05:21:12;15.80;99.90
17831;DHT22;9040;51.332;12.406;2022-09-13T05:23:39;15.80;99.90
17831;DHT22;9040;51.332;12.406;2022-09-13T05:26:06;15.80;99.90
17831;DHT22;9040;51.332;12.406;2022-09-13T05:28:35;15.70;99.90
17831;DHT22;9040;51.332;12.406;2022-09-13T05:31:03;15.80;99.90
17831;DHT22;9040;51.332;12.406;2022-09-13T05:33:34;15.80;99.90
17831;DHT22;9040;51.332;12.406;2022-09-13T05:36:01;15.80;99.90
17831;DHT22;9040;51.332;12.406;2022-09-13T05:38:28;15.80;99.90
17831;DHT22;9040;51.332;12.406;2022-09-13T05:40:56;15.80;99.90
17831;DHT22;9040;51.332;12.406;2022-09-13T05:43:23;15.90;99.90
17831;DHT22;9040;51.332;12.406;2022-09-13T05:45:50;15.90;99.90
17831;DHT22;9040;51.332;12.406;2022-09-13T05:48:18;15.90;99.90
17831;DHT22;9040;51.332;12.406;2022-09-13T05:50:46;16.00;99.90
17831;DHT22;9040;51.332;12.406;2022-09-13T05:53:13;16.10;99.90
17831;DHT22;9040;51.332;12.406;2022-09-13T05:55:40;16.10;99.90
17831;DHT22;9040;51.332;12.406;2022-09-13T05:58:06;16.10;99.90
17831;DHT22;9040;51.332;12.406;2022-09-13T06:00:33;16.20;99.90
17831;DHT22;9040;51.332;12.406;2022-09-13T06:03:00;16.20;99.90
17831;DHT22;9040;51.332;12.406;2022-09-13T06:05:27;16.20;99.90
17831;DHT22;9040;51.332;12.406;2022-09-13T06:07:55;16.20;99.90
17831;DHT22;9040;51.332;12.406;2022-09-13T06:10:22;16.20;99.90
17831;DHT22;9040;51.332;12.406;2022-09-13T06:12:49;16.20;99.90
17831;DHT22;9040;51.332;12.406;2022-09-13T06:15:16;16.30;99.90
17831;DHT22;9040;51.332;12.406;2022-09-13T06:17:43;16.30;99.90
17831;DHT22;9040;51.332;12.406;2022-09-13T06:20:10;16.30;99.90
17831;DHT22;9040;51.332;12.406;2022-09-13T06:22:37;16.30;99.90
17831;DHT22;9040;51.332;12.406;2022-09-13T06:25:06;16.40;99.90
17831;DHT22;9040;51.332;12.406;2022-09-13T06:27:34;16.40;99.90
17831;DHT22;9040;51.332;12.406;2022-09-13T06:30:00;16.40;99.90
17831;DHT22;9040;51.332;12.406;2022-09-13T06:32:27;16.40;99.90
17831;DHT22;9040;51.332;12.406;2022-09-13T06:34:54;16.40;99.90
17831;DHT22;9040;51.332;12.406;2022-09-13T06:37:21;16.40;99.90
17831;DHT22;9040;51.332;12.406;2022-09-13T06:39:47;16.40;99.90
17831;DHT22;9040;51.332;12.406;2022-09-13T06:42:16;16.30;99.90
17831;DHT22;9040;51.332;12.406;2022-09-13T06:44:43;16.30;99.90
17831;DHT22;9040;51.332;12.406;2022-09-13T06:47:10;16.30;99.90
17831;DHT22;9040;51.332;12.406;2022-09-13T06:49:37;16.30;99.90
17831;DHT22;9040;51.332;12.406;2022-09-13T06:52:05;16.40;99.90
17831;DHT22;9040;51.332;12.406;2022-09-13T06:54:32;16.40;99.90
17831;DHT22;9040;51.332;12.406;2022-09-13T06:56:58;16.50;99.90
17831;DHT22;9040;51.332;12.406;2022-09-13T06:59:28;16.50;99.90
17831;DHT22;9040;51.332;12.406;2022-09-13T07:01:55;16.60;99.90
17831;DHT22;9040;51.332;12.406;2022-09-13T07:04:22;16.60;99.90
17831;DHT22;9040;51.332;12.406;2022-09-13T07:06:49;16.60;99.90
17831;DHT22;9040;51.332;12.406;2022-09-13T07:09:18;16.60;99.90
17831;DHT22;9040;51.332;12.406;2022-09-13T07:11:46;16.60;99.90
17831;DHT22;9040;51.332;12.406;2022-09-13T07:14:15;16.60;99.90
17831;DHT22;9040;51.332;12.406;2022-09-13T07:16:44;16.60;99.90
17831;DHT22;9040;51.332;12.406;2022-09-13T07:19:12;16.70;99.90
17831;DHT22;9040;51.332;12.406;2022-09-13T07:21:40;16.70;99.90
17831;DHT22;9040;51.332;12.406;2022-09-13T07:24:07;16.70;99.90
17831;DHT22;9040;51.332;12.406;2022-09-13T07:26:34;16.70;99.90
17831;DHT22;9040;51.332;12.406;2022-09-13T07:29:05;16.70;99.90
17831;DHT22;9040;51.332;12.406;2022-09-13T07:31:34;16.80;99.90
17831;DHT22;9040;51.332;12.406;2022-09-13T07:34:05;16.80;99.90
17831;DHT22;9040;51.332;12.406;2022-09-13T07:36:35;16.80;99.90
17831;DHT22;9040;51.332;12.406;2022-09-13T07:39:03;16.90;99.90
17831;DHT22;9040;51.332;12.406;2022-09-13T07:41:31;17.00;99.90
17831;DHT22;9040;51.332;12.406;2022-09-13T07:43:58;17.10;99.90
17831;DHT22;9040;51.332;12.406;2022-09-13T07:46:27;17.10;99.90
17831;DHT22;9040;51.332;12.406;2022-09-13T07:48:57;17.20;99.90
17831;DHT22;9040;51.332;12.406;2022-09-13T07:51:27;17.30;99.90
17831;DHT22;9040;51.332;12.406;2022-09-13T07:53:56;17.40;99.90
17831;DHT22;9040;51.332;12.406;2022-09-13T07:56:25;17.50;99.90
17831;DHT22;9040;51.332;12.406;2022-09-13T07:58:52;17.60;99.90
17831;DHT22;9040;51.332;12.406;2022-09-13T08:01:21;17.60;99.90
17831;DHT22;9040;51.332;12.406;2022-09-13T08:03:53;17.60;99.90
17831;DHT22;9040;51.332;12.406;2022-09-13T08:06:21;17.60;99.90
17831;DHT22;9040;51.332;12.406;2022-09-13T08:08:50;17.60;99.90
17831;DHT22;9040;51.332;12.406;2022-09-13T08:11:19;17.60;99.90
17831;DHT22;9040;51.332;12.406;2022-09-13T08:13:47;17.70;99.90
17831;DHT22;9040;51.332;12.406;2022-09-13T08:16:15;17.80;99.90
17831;DHT22;9040;51.332;12.406;2022-09-13T08:18:43;17.80;99.90
17831;DHT22;9040;51.332;12.406;2022-09-13T08:21:11;17.80;99.90
17831;DHT22;9040;51.332;12.406;2022-09-13T08:23:38;18.00;99.90
17831;DHT22;9040;51.332;12.406;2022-09-13T08:26:07;18.10;99.90
17831;DHT22;9040;51.332;12.406;2022-09-13T08:28:34;18.10;99.90
17831;DHT22;9040;51.332;12.406;2022-09-13T08:31:04;18.10;99.90
17831;DHT22;9040;51.332;12.406;2022-09-13T08:33:32;18.10;99.90
17831;DHT22;9040;51.332;12.406;2022-09-13T08:35:59;18.10;99.90
17831;DHT22;9040;51.332;12.406;2022-09-13T08:38:27;18.20;99.90
17831;DHT22;9040;51.332;12.406;2022-09-13T08:40:55;18.20;99.90
17831;DHT22;9040;51.332;12.406;2022-09-13T08:43:38;18.20;99.90
17831;DHT22;9040;51.332;12.406;2022-09-13T08:46:13;18.20;99.90
17831;DHT22;9040;51.332;12.406;2022-09-13T08:48:44;18.20;99.90
17831;DHT22;9040;51.332;12.406;2022-09-13T08:51:27;18.20;99.90
17831;DHT22;9040;51.332;12.406;2022-09-13T08:53:55;18.20;99.90
17831;DHT22;9040;51.332;12.406;2022-09-13T08:56:28;18.30;99.90
17831;DHT22;9040;51.332;12.406;2022-09-13T08:59:18;18.30;99.90
17831;DHT22;9040;51.332;12.406;2022-09-13T09:01:55;18.40;99.90
17831;DHT22;9040;51.332;12.406;2022-09-13T09:04:36;18.40;99.90
17831;DHT22;9040;51.332;12.406;2022-09-13T09:07:09;18.50;99.90
17831;DHT22;9040;51.332;12.406;2022-09-13T09:09:41;18.60;99.90
17831;DHT22;9040;51.332;12.406;2022-09-13T09:12:15;18.60;99.90
17831;DHT22;9040;51.332;12.406;2022-09-13T09:14:55;18.70;99.90
17831;DHT22;9040;51.332;12.406;2022-09-13T09:17:27;18.70;99.90
17831;DHT22;9040;51.332;12.406;2022-09-13T09:20:06;18.80;99.90
17831;DHT22;9040;51.332;12.406;2022-09-13T09:22:35;18.90;99.90
17831;DHT22;9040;51.332;12.406;2022-09-13T09:25:02;19.00;99.90
17831;DHT22;9040;51.332;12.406;2022-09-13T09:27:30;19.00;99.90
17831;DHT22;9040;51.332;12.406;2022-09-13T09:29:59;19.10;99.90
17831;DHT22;9040;51.332;12.406;2022-09-13T09:32:51;19.20;99.90
17831;DHT22;9040;51.332;12.406;2022-09-13T09:35:30;19.30;99.90
17831;DHT22;9040;51.332;12.406;2022-09-13T09:38:18;19.30;99.90
17831;DHT22;9040;51.332;12.406;2022-09-13T09:40:47;19.40;99.90
17831;DHT22;9040;51.332;12.406;2022-09-13T09:43:16;19.40;99.90
17831;DHT22;9040;51.332;12.406;2022-09-13T09:45:46;19.40;99.90
17831;DHT22;9040;51.332;12.406;2022-09-13T09:48:17;19.50;99.90
17831;DHT22;9040;51.332;12.406;2022-09-13T09:50:49;19.60;99.90
17831;DHT22;9040;51.332;12.406;2022-09-13T09:53:21;19.70;99.90
17831;DHT22;9040;51.332;12.406;2022-09-13T09:55:55;19.80;99.90
17831;DHT22;9040;51.332;12.406;2022-09-13T09:58:36;20.00;99.90
17831;DHT22;9040;51.332;12.406;2022-09-13T10:01:05;20.00;99.90
17831;DHT22;9040;51.332;12.406;2022-09-13T10:03:41;20.00;99.90
17831;DHT22;9040;51.332;12.406;2022-09-13T10:06:10;20.10;99.90
17831;DHT22;9040;51.332;12.406;2022-09-13T10:08:40;20.30;99.90
17831;DHT22;9040;51.332;12.406;2022-09-13T10:11:08;20.40;99.90
17831;DHT22;9040;51.332;12.406;2022-09-13T10:13:35;20.50;99.90
17831;DHT22;9040;51.332;12.406;2022-09-13T10:16:06;20.60;99.90
17831;DHT22;9040;51.332;12.406;2022-09-13T10:18:40;20.60;99.90
17831;DHT22;9040;51.332;12.406;2022-09-13T10:21:20;20.70;99.90
17831;DHT22;9040;51.332;12.406;2022-09-13T10:23:49;20.80;99.90
17831;DHT22;9040;51.332;12.406;2022-09-13T10:26:17;21.00;99.90
17831;DHT22;9040;51.332;12.406;2022-09-13T10:28:50;21.10;99.90
17831;DHT22;9040;51.332;12.406;2022-09-13T10:31:27;21.30;99.90
17831;DHT22;9040;51.332;12.406;2022-09-13T10:33:57;21.40;99.90
17831;DHT22;9040;51.332;12.406;2022-09-13T10:36:28;21.40;99.90
17831;DHT22;9040;51.332;12.406;2022-09-13T10:38:58;21.40;99.90
17831;DHT22;9040;51.332;12.406;2022-09-13T10:41:26;21.40;99.90
17831;DHT22;9040;51.332;12.406;2022-09-13T10:43:58;21.50;99.90
17831;DHT22;9040;51.332;12.406;2022-09-13T10:46:30;21.50;99.90
17831;DHT22;9040;51.332;12.406;2022-09-13T10:48:59;21.60;99.90
17831;DHT22;9040;51.332;12.406;2022-09-13T10:51:33;21.70;99.90
17831;DHT22;9040;51.332;12.406;2022-09-13T10:54:16;21.70;99.90
17831;DHT22;9040;51.332;12.406;2022-09-13T10:56:44;21.80;99.90
17831;DHT22;9040;51.332;12.406;2022-09-13T10:59:16;21.90;99.90
17831;DHT22;9040;51.332;12.406;2022-09-13T11:01:54;21.90;99.90
17831;DHT22;9040;51.332;12.406;2022-09-13T11:04:45;21.90;99.90
17831;DHT22;9040;51.332;12.406;2022-09-13T11:07:32;21.90;99.90
17831;DHT22;9040;51.332;12.406;2022-09-13T11:10:04;22.00;99.90
17831;DHT22;9040;51.332;12.406;2022-09-13T11:12:38;21.80;99.90
17831;DHT22;9040;51.332;12.406;2022-09-13T11:15:15;21.90;99.90
17831;DHT22;9040;51.332;12.406;2022-09-13T11:18:35;21.90;99.90
17831;DHT22;9040;51.332;12.406;2022-09-13T11:21:16;22.20;99.90
17831;DHT22;9040;51.332;12.406;2022-09-13T11:24:06;22.40;99.90
17831;DHT22;9040;51.332;12.406;2022-09-13T11:26:45;22.50;99.90
17831;DHT22;9040;51.332;12.406;2022-09-13T11:29:43;22.60;99.90
17831;DHT22;9040;51.332;12.406;2022-09-13T11:32:20;22.70;99.90
17831;DHT22;9040;51.332;12.406;2022-09-13T11:35:06;22.80;99.90
17831;DHT22;9040;51.332;12.406;2022-09-13T11:37:45;22.90;99.90
17831;DHT22;9040;51.332;12.406;2022-09-13T11:40:33;22.90;99.90
17831;DHT22;9040;51.332;12.406;2022-09-13T11:43:13;22.80;99.90
17831;DHT22;9040;51.332;12.406;2022-09-13T11:45:46;22.70;99.90
17831;DHT22;9040;51.332;12.406;2022-09-13T11:48:35;22.60;99.90
17831;DHT22;9040;51.332;12.406;2022-09-13T11:51:10;22.60;99.90
17831;DHT22;9040;51.332;12.406;2022-09-13T11:54:00;22.50;99.90
17831;DHT22;9040;51.332;12.406;2022-09-13T11:56:32;22.60;99.90
17831;DHT22;9040;51.332;12.406;2022-09-13T11:59:10;22.60;99.90
17831;DHT22;9040;51.332;12.406;2022-09-13T12:01:44;22.80;99.90
17831;DHT22;9040;51.332;12.406;2022-09-13T12:04:16;23.10;99.90
17831;DHT22;9040;51.332;12.406;2022-09-13T12:06:50;23.20;99.90
17831;DHT22;9040;51.332;12.406;2022-09-13T12:09:21;23.20;99.90
17831;DHT22;9040;51.332;12.406;2022-09-13T12:11:52;23.10;99.90
17831;DHT22;9040;51.332;12.406;2022-09-13T12:14:22;23.20;99.90
17831;DHT22;9040;51.332;12.406;2022-09-13T12:16:54;23.20;99.90
17831;DHT22;9040;51.332;12.406;2022-09-13T12:19:26;23.20;99.90
17831;DHT22;9040;51.332;12.406;2022-09-13T12:21:56;23.00;99.90
17831;DHT22;9040;51.332;12.406;2022-09-13T12:24:36;23.00;99.90
17831;DHT22;9040;51.332;12.406;2022-09-13T12:27:08;23.00;99.90
17831;DHT22;9040;51.332;12.406;2022-09-13T12:29:43;23.00;99.90
17831;DHT22;9040;51.332;12.406;2022-09-13T12:32:11;23.00;99.90
17831;DHT22;9040;51.332;12.406;2022-09-13T12:34:43;22.90;99.90
17831;DHT22;9040;51.332;12.406;2022-09-13T12:37:37;22.90;99.90
17831;DHT22;9040;51.332;12.406;2022-09-13T12:40:32;22.80;99.90
17831;DHT22;9040;51.332;12.406;2022-09-13T12:43:09;22.70;99.90
17831;DHT22;9040;51.332;12.406;2022-09-13T12:45:55;22.70;99.90
17831;DHT22;9040;51.332;12.406;2022-09-13T12:48:50;22.70;99.90
17831;DHT22;9040;51.332;12.406;2022-09-13T12:51:33;22.70;99.90
17831;DHT22;9040;51.332;12.406;2022-09-13T12:54:31;22.70;99.90
17831;DHT22;9040;51.332;12.406;2022-09-13T12:57:15;22.70;99.90
17831;DHT22;9040;51.332;12.406;2022-09-13T13:00:09;22.80;99.90
17831;DHT22;9040;51.332;12.406;2022-09-13T13:02:39;22.80;99.90
17831;DHT22;9040;51.332;12.406;2022-09-13T13:05:19;22.70;99.90
17831;DHT22;9040;51.332;12.406;2022-09-13T13:07:51;22.70;99.90
17831;DHT22;9040;51.332;12.406;2022-09-13T13:10:27;22.70;99.90
17831;DHT22;9040;51.332;12.406;2022-09-13T13:12:56;22.70;99.90
17831;DHT22;9040;51.332;12.406;2022-09-13T13:16:02;22.80;99.90
17831;DHT22;9040;51.332;12.406;2022-09-13T13:18:31;22.80;99.90
17831;DHT22;9040;51.332;12.406;2022-09-13T13:21:33;22.80;99.90
17831;DHT22;9040;51.332;12.406;2022-09-13T13:30:41;23.10;99.90
17831;DHT22;9040;51.332;12.406;2022-09-13T13:33:22;23.10;99.90
17831;DHT22;9040;51.332;12.406;2022-09-13T13:35:50;23.20;99.90
17831;DHT22;9040;51.332;12.406;2022-09-13T13:38:40;23.40;99.90
17831;DHT22;9040;51.332;12.406;2022-09-13T13:41:37;23.50;99.90
17831;DHT22;9040;51.332;12.406;2022-09-13T13:47:51;24.00;99.90
17831;DHT22;9040;51.332;12.406;2022-09-13T13:50:19;24.30;99.90
17831;DHT22;9040;51.332;12.406;2022-09-13T13:52:55;24.80;99.90
17831;DHT22;9040;51.332;12.406;2022-09-13T13:55:44;25.30;99.90
17831;DHT22;9040;51.332;12.406;2022-09-13T13:58:32;25.50;99.90
17831;DHT22;9040;51.332;12.406;2022-09-13T14:01:03;25.90;99.90
17831;DHT22;9040;51.332;12.406;2022-09-13T14:03:48;26.50;99.90
17831;DHT22;9040;51.332;12.406;2022-09-13T14:06:20;27.80;99.90
17831;DHT22;9040;51.332;12.406;2022-09-13T14:09:01;29.00;99.90
17831;DHT22;9040;51.332;12.406;2022-09-13T14:11:38;29.40;99.90
17831;DHT22;9040;51.332;12.406;2022-09-13T14:14:27;28.40;99.90
17831;DHT22;9040;51.332;12.406;2022-09-13T14:17:22;27.00;99.90
17831;DHT22;9040;51.332;12.406;2022-09-13T14:19:53;25.90;99.90
17831;DHT22;9040;51.332;12.406;2022-09-13T14:22:22;25.20;99.90
17831;DHT22;9040;51.332;12.406;2022-09-13T14:24:51;24.70;99.90
17831;DHT22;9040;51.332;12.406;2022-09-13T14:27:20;24.50;99.90
17831;DHT22;9040;51.332;12.406;2022-09-13T14:29:50;24.40;99.90
17831;DHT22;9040;51.332;12.406;2022-09-13T14:32:20;24.30;99.90
17831;DHT22;9040;51.332;12.406;2022-09-13T14:35:01;24.10;99.90
17831;DHT22;9040;51.332;12.406;2022-09-13T14:37:30;24.00;99.90
17831;DHT22;9040;51.332;12.406;2022-09-13T14:40:00;23.90;99.90
17831;DHT22;9040;51.332;12.406;2022-09-13T14:42:37;23.80;99.90
17831;DHT22;9040;51.332;12.406;2022-09-13T14:45:05;23.70;99.90
17831;DHT22;9040;51.332;12.406;2022-09-13T14:47:45;23.60;99.90
17831;DHT22;9040;51.332;12.406;2022-09-13T14:50:17;23.60;99.90
17831;DHT22;9040;51.332;12.406;2022-09-13T14:52:48;23.60;99.90
17831;DHT22;9040;51.332;12.406;2022-09-13T14:55:17;23.50;99.90
17831;DHT22;9040;51.332;12.406;2022-09-13T14:57:48;23.40;99.90
17831;DHT22;9040;51.332;12.406;2022-09-13T15:00:18;23.40;99.90
17831;DHT22;9040;51.332;12.406;2022-09-13T15:02:48;23.30;99.90
17831;DHT22;9040;51.332;12.406;2022-09-13T15:05:19;23.20;99.90
17831;DHT22;9040;51.332;12.406;2022-09-13T15:07:46;23.10;99.90
17831;DHT22;9040;51.332;12.406;2022-09-13T15:10:22;23.10;99.90
17831;DHT22;9040;51.332;12.406;2022-09-13T15:12:52;23.00;99.90
17831;DHT22;9040;51.332;12.406;2022-09-13T15:15:27;23.00;99.90
17831;DHT22;9040;51.332;12.406;2022-09-13T15:17:58;22.90;99.90
17831;DHT22;9040;51.332;12.406;2022-09-13T15:20:28;22.90;99.90
17831;DHT22;9040;51.332;12.406;2022-09-13T15:22:56;22.90;99.90
17831;DHT22;9040;51.332;12.406;2022-09-13T15:25:26;22.90;99.90
17831;DHT22;9040;51.332;12.406;2022-09-13T15:27:54;22.90;99.90
17831;DHT22;9040;51.332;12.406;2022-09-13T15:30:24;23.00;99.90
17831;DHT22;9040;51.332;12.406;2022-09-13T15:33:05;23.00;99.90
17831;DHT22;9040;51.332;12.406;2022-09-13T15:35:42;23.10;99.90
17831;DHT22;9040;51.332;12.406;2022-09-13T15:38:18;23.10;99.90
17831;DHT22;9040;51.332;12.406;2022-09-13T15:40:57;23.20;99.90
17831;DHT22;9040;51.332;12.406;2022-09-13T15:43:24;23.10;99.90
17831;DHT22;9040;51.332;12.406;2022-09-13T15:45:51;23.10;99.90
17831;DHT22;9040;51.332;12.406;2022-09-13T15:48:24;23.00;99.90
17831;DHT22;9040;51.332;12.406;2022-09-13T15:51:05;22.90;99.90
17831;DHT22;9040;51.332;12.406;2022-09-13T15:53:33;22.80;99.90
17831;DHT22;9040;51.332;12.406;2022-09-13T15:56:00;22.80;99.90
17831;DHT22;9040;51.332;12.406;2022-09-13T15:58:28;22.70;99.90
17831;DHT22;9040;51.332;12.406;2022-09-13T16:00:55;22.70;99.90
17831;DHT22;9040;51.332;12.406;2022-09-13T16:03:22;22.60;99.90
17831;DHT22;9040;51.332;12.406;2022-09-13T16:05:49;22.60;99.90
17831;DHT22;9040;51.332;12.406;2022-09-13T16:08:17;22.60;99.90
17831;DHT22;9040;51.332;12.406;2022-09-13T16:10:44;22.60;99.90
17831;DHT22;9040;51.332;12.406;2022-09-13T16:13:11;22.60;99.90
17831;DHT22;9040;51.332;12.406;2022-09-13T16:15:38;22.70;99.90
17831;DHT22;9040;51.332;12.406;2022-09-13T16:18:05;22.80;99.90
17831;DHT22;9040;51.332;12.406;2022-09-13T16:20:32;22.80;99.90
17831;DHT22;9040;51.332;12.406;2022-09-13T16:22:58;22.80;99.90
17831;DHT22;9040;51.332;12.406;2022-09-13T16:25:27;22.80;99.90